Terminal Aerodrome Forecast
Issued by NWS Corpus Christi, TX

Home | Current Version | Previous Version | Text Only | Print | Product List | Glossary On
Versions: 1 2 3 4 5 6 7 8 9 10 11 12 13 14 15 16 17 18 19 20 21 22 23 24 25 26 27 28 29 30 31 32 33 34 35 36 37 38 39 40 41 42 43 44 45 46
000
FTUS44 KCRP 201739
TAFCRP
TAF
KCRP 201739Z 2018/2118 03012KT P6SM FEW250
     FM202300 07009KT P6SM SKC
     FM210300 13005KT P6SM SKC
      TEMPO 2110/2112 5SM BR FEW001
     FM211600 15012G16KT P6SM SCT250=

USA.gov is the U.S. government's official web portal to all federal, state and local government web resources and services.